createdAt,value
2018-04-26T00:00:54.474Z,10.20
2018-04-26T00:03:22.015Z,10.20
2018-04-26T00:05:49.574Z,10.20
2018-04-26T00:08:17.115Z,10.20
2018-04-26T00:10:44.692Z,10.20
2018-04-26T00:13:12.241Z,10.10
2018-04-26T00:15:39.794Z,10.10
2018-04-26T00:18:07.336Z,10.10
2018-04-26T00:20:35.643Z,10.20
2018-04-26T00:23:03.204Z,10.10
2018-04-26T00:25:30.741Z,10.10
2018-04-26T00:27:59.058Z,10.20
2018-04-26T00:30:26.602Z,10.10
2018-04-26T00:32:54.160Z,10.10
2018-04-26T00:35:21.693Z,10.00
2018-04-26T00:37:50.034Z,9.90
2018-04-26T00:40:17.554Z,9.90
2018-04-26T00:42:45.098Z,9.90
2018-04-26T00:45:12.644Z,9.90
2018-04-26T00:47:40.929Z,9.80
2018-04-26T00:50:09.231Z,9.80
2018-04-26T00:52:36.745Z,9.80
2018-04-26T00:55:04.301Z,9.90
2018-04-26T00:57:31.839Z,9.80
2018-04-26T00:59:59.391Z,9.70
2018-04-26T01:02:26.931Z,9.80
2018-04-26T01:04:54.494Z,9.70
2018-04-26T01:07:22.045Z,9.60
2018-04-26T01:09:49.602Z,9.60
2018-04-26T01:12:17.150Z,9.60
2018-04-26T01:14:44.704Z,9.60
2018-04-26T01:17:13.009Z,9.50
2018-04-26T01:19:40.560Z,9.50
2018-04-26T01:22:08.146Z,9.60
2018-04-26T01:24:35.681Z,9.50
2018-04-26T01:27:03.226Z,9.50
2018-04-26T01:29:30.778Z,9.50
2018-04-26T01:31:59.114Z,9.60
2018-04-26T01:34:26.654Z,9.50
2018-04-26T01:37:06.054Z,9.50
2018-04-26T01:39:34.351Z,9.50
2018-04-26T01:42:01.890Z,9.50
2018-04-26T01:44:30.197Z,9.50
2018-04-26T01:46:57.737Z,9.40
2018-04-26T01:49:25.278Z,9.50
2018-04-26T01:51:53.585Z,9.30
2018-04-26T01:54:21.137Z,9.30
2018-04-26T01:56:48.670Z,9.30
2018-04-26T01:59:16.994Z,9.20
2018-04-26T02:01:44.536Z,9.20
2018-04-26T02:04:12.070Z,9.10
2018-04-26T02:06:40.412Z,9.10
2018-04-26T02:09:07.958Z,9.10
2018-04-26T02:11:35.488Z,9.20
2018-04-26T02:14:03.061Z,9.20
2018-04-26T02:16:30.590Z,9.10
2018-04-26T02:18:58.891Z,9.10
2018-04-26T02:21:26.452Z,9.10
2018-04-26T02:23:53.990Z,9.10
2018-04-26T02:26:22.292Z,9.10
2018-04-26T02:28:49.842Z,9.10
2018-04-26T02:31:17.370Z,9.10
2018-04-26T02:33:44.933Z,9.20
2018-04-26T02:36:13.258Z,9.20
2018-04-26T02:38:40.798Z,9.10
2018-04-26T02:41:08.354Z,9.20
2018-04-26T02:43:35.917Z,9.20
2018-04-26T02:46:03.451Z,9.20
2018-04-26T02:48:31.755Z,9.30
2018-04-26T02:50:59.303Z,9.20
2018-04-26T02:53:27.624Z,9.20
2018-04-26T02:55:55.148Z,9.20
2018-04-26T02:58:22.705Z,9.20
2018-04-26T03:00:50.242Z,9.20
2018-04-26T03:03:18.557Z,9.20
2018-04-26T03:05:46.116Z,9.20
2018-04-26T03:08:13.705Z,9.20
2018-04-26T03:10:41.221Z,9.20
2018-04-26T03:13:08.795Z,9.30
2018-04-26T03:15:36.339Z,9.30
2018-04-26T03:18:04.642Z,9.30
2018-04-26T03:20:32.214Z,9.30
2018-04-26T03:22:59.731Z,9.30
2018-04-26T03:25:28.044Z,9.30
2018-04-26T03:27:55.606Z,9.30
2018-04-26T03:30:23.131Z,9.40
2018-04-26T03:32:50.670Z,9.40
2018-04-26T03:35:18.226Z,9.40
2018-04-26T03:37:45.771Z,9.40
2018-04-26T03:40:13.288Z,9.40
2018-04-26T03:42:40.853Z,9.40
2018-04-26T03:45:08.388Z,9.40
2018-04-26T03:47:35.929Z,9.50
2018-04-26T03:50:03.506Z,9.50
2018-04-26T03:52:31.816Z,9.50
2018-04-26T03:54:59.360Z,9.50
2018-04-26T03:57:26.904Z,9.50
2018-04-26T04:00:06.407Z,9.40
2018-04-26T04:02:45.814Z,9.40
2018-04-26T04:05:25.306Z,9.40
2018-04-26T04:07:53.620Z,9.40
2018-04-26T04:10:21.174Z,9.30
2018-04-26T04:12:48.709Z,9.40
2018-04-26T04:15:17.056Z,9.40
2018-04-26T04:17:44.595Z,9.40
2018-04-26T04:20:12.126Z,9.40
2018-04-26T04:22:39.711Z,9.40
2018-04-26T04:25:07.245Z,9.40
2018-04-26T04:27:34.764Z,9.40
2018-04-26T04:30:02.308Z,9.40
2018-04-26T04:32:29.832Z,9.50
2018-04-26T04:34:57.356Z,9.50
2018-04-26T04:37:25.679Z,9.50
2018-04-26T04:39:53.222Z,9.50
2018-04-26T04:42:20.766Z,9.60
2018-04-26T04:44:49.067Z,9.40
2018-04-26T04:47:16.626Z,9.30
2018-04-26T04:49:45.006Z,9.40
2018-04-26T04:52:12.542Z,9.40
2018-04-26T04:54:40.874Z,9.30
2018-04-26T04:57:08.454Z,9.30
2018-04-26T04:59:35.971Z,9.30
2018-04-26T05:02:03.515Z,9.30
2018-04-26T05:04:31.046Z,9.10
2018-04-26T05:06:59.380Z,9.10
2018-04-26T05:09:26.926Z,9.10
2018-04-26T05:11:54.487Z,9.10
2018-04-26T05:14:22.019Z,9.20
2018-04-26T07:23:28.454Z,8.60
2018-04-26T07:25:55.997Z,8.50
2018-04-26T07:28:23.569Z,8.50
2018-04-26T07:30:51.136Z,8.50
2018-04-26T07:33:18.703Z,8.30
2018-04-26T07:35:47.036Z,8.40
2018-04-26T07:38:14.590Z,8.30
2018-04-26T07:40:42.155Z,8.40
2018-04-26T07:43:09.712Z,8.40
2018-04-26T07:45:37.276Z,8.50
2018-04-26T07:48:04.833Z,8.50
2018-04-26T07:50:32.414Z,8.70
2018-04-26T07:53:00.019Z,8.80
2018-04-26T07:55:27.591Z,9.00
2018-04-26T07:57:55.891Z,9.30
2018-04-26T08:00:23.483Z,9.20
2018-04-26T08:02:51.040Z,9.30
2018-04-26T08:05:18.583Z,9.30
2018-04-26T08:07:46.149Z,9.30
2018-04-26T08:10:13.714Z,9.30
2018-04-26T08:12:41.307Z,9.30
2018-04-26T08:15:08.894Z,9.40
2018-04-26T08:17:36.444Z,9.40
2018-04-26T08:20:04.014Z,9.40
2018-04-26T08:22:32.448Z,9.40
2018-04-26T08:25:00.022Z,9.40
2018-04-26T08:27:27.588Z,9.40
2018-04-26T08:29:55.168Z,9.50
2018-04-26T08:32:23.505Z,9.70
2018-04-26T08:34:51.061Z,9.70
2018-04-26T08:37:18.656Z,9.70
2018-04-26T08:39:46.252Z,9.80
2018-04-26T08:42:13.790Z,9.90
2018-04-26T08:44:42.136Z,10.10
2018-04-26T08:47:09.696Z,10.10
2018-04-26T08:49:37.266Z,10.30
2018-04-26T08:52:04.852Z,10.50
2018-04-26T08:54:32.417Z,10.40
2018-04-26T08:57:00.695Z,10.50
2018-04-26T08:59:28.305Z,10.50
2018-04-26T09:01:55.923Z,10.40
2018-04-26T09:04:23.485Z,10.30
2018-04-26T09:06:51.153Z,10.20
2018-04-26T09:09:18.628Z,10.00
2018-04-26T09:11:46.199Z,10.00
2018-04-26T09:14:13.797Z,10.00
2018-04-26T09:16:41.406Z,10.00
2018-04-26T09:19:08.991Z,10.20
2018-04-26T09:21:36.614Z,10.50
2018-04-26T09:24:04.166Z,10.80
2018-04-26T09:26:31.738Z,11.10
2018-04-26T09:28:59.372Z,11.20
2018-04-26T09:31:26.949Z,11.30
2018-04-26T09:33:54.514Z,11.30
2018-04-26T09:36:22.137Z,11.30
2018-04-26T09:38:49.837Z,11.20
2018-04-26T09:41:18.128Z,11.00
2018-04-26T09:43:45.737Z,11.00
2018-04-26T09:46:13.331Z,11.00
2018-04-26T09:48:40.935Z,10.90
2018-04-26T09:51:08.513Z,11.00
2018-04-26T09:53:36.073Z,11.20
2018-04-26T09:56:03.611Z,11.30
2018-04-26T09:58:31.251Z,11.40
2018-04-26T10:00:58.801Z,11.60
2018-04-26T10:03:27.164Z,11.70
2018-04-26T10:05:57.563Z,12.00
2018-04-26T10:08:25.153Z,12.20
2018-04-26T10:10:52.701Z,12.30
2018-04-26T10:13:21.036Z,12.50
2018-04-26T10:15:48.578Z,12.50
2018-04-26T10:18:16.148Z,12.70
2018-04-26T10:20:43.733Z,12.60
2018-04-26T10:23:12.197Z,12.50
2018-04-26T10:25:40.767Z,12.60
2018-04-26T10:28:08.386Z,12.80
2018-04-26T10:30:36.704Z,12.80
2018-04-26T10:33:04.263Z,12.80
2018-04-26T10:35:31.820Z,12.80
2018-04-26T10:37:59.351Z,12.70
2018-04-26T10:40:26.956Z,12.40
2018-04-26T10:42:54.533Z,12.10
2018-04-26T10:45:22.144Z,11.90
2018-04-26T10:47:49.704Z,11.50
2018-04-26T10:50:17.273Z,11.30
2018-04-26T10:52:44.834Z,11.10
2018-04-26T10:55:12.382Z,10.90
2018-04-26T10:57:39.994Z,10.80
2018-04-26T11:00:07.579Z,10.70
2018-04-26T11:02:35.153Z,10.60
2018-04-26T11:05:02.750Z,10.60
2018-04-26T11:07:30.338Z,10.60
2018-04-26T11:09:57.908Z,10.80
2018-04-26T11:12:25.496Z,10.90
2018-04-26T11:14:53.051Z,10.90
2018-04-26T11:17:20.622Z,11.00
2018-04-26T11:19:48.204Z,10.90
2018-04-26T11:22:15.776Z,10.80
2018-04-26T11:24:43.340Z,10.30
2018-04-26T11:27:10.921Z,10.00
2018-04-26T11:29:38.456Z,9.70
2018-04-26T11:32:06.038Z,9.50
2018-04-26T11:34:34.402Z,9.30
2018-04-26T11:37:01.976Z,9.30
2018-04-26T11:39:29.547Z,9.30
2018-04-26T11:41:57.139Z,9.40
2018-04-26T11:44:24.719Z,9.40
2018-04-26T11:46:52.321Z,9.50
2018-04-26T11:49:19.903Z,9.50
2018-04-26T11:51:47.496Z,9.60
2018-04-26T11:54:15.060Z,9.60
2018-04-26T11:56:42.663Z,9.70
2018-04-26T11:59:10.314Z,10.00
2018-04-26T12:01:37.939Z,10.20
2018-04-26T12:04:05.547Z,10.50
2018-04-26T12:06:33.131Z,10.80
2018-04-26T12:09:01.474Z,11.00
2018-04-26T12:11:29.077Z,11.00
2018-04-26T12:13:57.444Z,11.00
2018-04-26T12:16:25.049Z,11.00
2018-04-26T12:18:52.649Z,10.90
2018-04-26T12:21:20.204Z,10.80
2018-04-26T12:23:47.907Z,10.70
2018-04-26T12:26:15.503Z,10.60
2018-04-26T12:28:43.197Z,10.40
2018-04-26T12:31:10.756Z,10.30
2018-04-26T12:33:38.358Z,10.30
2018-04-26T12:36:05.946Z,10.50
2018-04-26T12:38:33.745Z,10.70
2018-04-26T12:41:01.329Z,10.90
2018-04-26T12:43:30.013Z,11.40
2018-04-26T12:45:58.514Z,11.40
2018-04-26T12:48:26.280Z,11.40
2018-04-26T12:50:53.825Z,11.60
2018-04-26T12:53:21.520Z,11.80
2018-04-26T12:55:49.931Z,11.90
2018-04-26T12:58:17.540Z,11.90
2018-04-26T13:00:45.100Z,12.00
2018-04-26T13:03:12.730Z,12.00
2018-04-26T13:05:40.336Z,12.00
2018-04-26T13:08:08.021Z,11.90
2018-04-26T13:10:36.972Z,11.80
2018-04-26T13:13:06.063Z,11.80
2018-04-26T13:15:33.808Z,11.70
2018-04-26T13:18:02.921Z,11.70
2018-04-26T13:20:31.049Z,11.60
2018-04-26T13:22:58.899Z,11.50
2018-04-26T13:25:27.965Z,11.20
2018-04-26T13:27:55.543Z,11.20
2018-04-26T13:30:23.112Z,11.00
2018-04-26T13:32:50.815Z,11.00
2018-04-26T13:35:19.162Z,11.00
2018-04-26T13:37:46.808Z,10.90
2018-04-26T13:40:15.203Z,11.30
2018-04-26T13:42:42.753Z,11.30
2018-04-26T13:45:10.766Z,11.40
2018-04-26T13:47:38.981Z,11.50
2018-04-26T13:50:06.688Z,11.50
2018-04-26T13:52:34.265Z,11.50
2018-04-26T13:55:02.648Z,11.50
2018-04-26T13:57:30.228Z,11.50
2018-04-26T13:59:57.814Z,11.50
2018-04-26T14:02:25.409Z,11.30
2018-04-26T14:04:53.042Z,11.20
2018-04-26T14:07:20.750Z,11.20
2018-04-26T14:09:49.239Z,10.90
2018-04-26T14:12:17.619Z,10.80
2018-04-26T14:14:46.023Z,10.80
2018-04-26T14:17:13.805Z,10.80
2018-04-26T14:19:41.502Z,10.80
2018-04-26T14:22:09.398Z,10.80
2018-04-26T14:24:37.300Z,10.70
2018-04-26T14:27:05.154Z,10.80
2018-04-26T14:29:33.720Z,10.80
2018-04-26T14:32:02.265Z,10.90
2018-04-26T14:34:30.841Z,10.90
2018-04-26T14:36:58.885Z,11.00
2018-04-26T14:39:27.263Z,11.10
2018-04-26T14:41:55.738Z,11.30
2018-04-26T14:44:24.654Z,11.60
2018-04-26T14:49:26.973Z,11.60
2018-04-26T14:51:55.384Z,11.70
2018-04-26T14:54:24.586Z,11.70
2018-04-26T14:56:53.051Z,11.60
2018-04-26T14:59:21.452Z,11.60
2018-04-26T15:01:49.732Z,11.60
2018-04-26T15:04:18.121Z,11.50
2018-04-26T15:06:46.965Z,11.50
2018-04-26T15:09:15.249Z,11.50
2018-04-26T15:11:43.526Z,11.50
2018-04-26T15:14:11.786Z,11.30
2018-04-26T15:16:40.124Z,11.20
2018-04-26T15:19:08.421Z,10.50
2018-04-26T15:21:36.940Z,9.80
2018-04-26T15:24:05.396Z,9.70
2018-04-26T15:26:33.849Z,9.60
2018-04-26T15:29:02.686Z,9.60
2018-04-26T15:31:31.105Z,9.60
2018-04-26T15:34:00.487Z,9.70
2018-04-26T15:36:29.022Z,9.70
2018-04-26T15:38:57.406Z,9.80
2018-04-26T15:41:25.745Z,9.90
2018-04-26T15:43:55.013Z,10.30
2018-04-26T15:46:24.268Z,10.40
2018-04-26T15:48:53.441Z,10.50
2018-04-26T15:51:21.652Z,10.50
2018-04-26T15:54:01.821Z,10.60
2018-04-26T15:56:54.583Z,10.70
2018-04-26T15:59:34.732Z,10.70
2018-04-26T16:05:29.798Z,10.80
2018-04-26T16:08:15.493Z,10.90
2018-04-26T16:11:01.927Z,11.00
2018-04-26T16:17:15.963Z,11.10
2018-04-26T16:20:01.654Z,11.10
2018-04-26T16:22:47.804Z,11.00
2018-04-26T16:28:35.978Z,11.00
2018-04-26T16:31:22.252Z,11.00
2018-04-26T16:34:06.241Z,11.00
2018-04-26T16:36:45.965Z,10.90
2018-04-26T16:39:16.604Z,10.80
2018-04-26T16:41:44.985Z,10.80
2018-04-26T16:44:13.221Z,10.80
2018-04-26T16:46:41.459Z,10.80
2018-04-26T16:49:09.743Z,10.60
2018-04-26T16:51:38.342Z,10.50
2018-04-26T16:54:06.877Z,10.40
2018-04-26T16:56:35.365Z,10.30
2018-04-26T16:59:03.839Z,10.30
2018-04-26T17:01:32.089Z,10.30
2018-04-26T17:04:00.535Z,10.20
2018-04-26T17:06:29.103Z,10.10
2018-04-26T17:08:58.466Z,10.10
2018-04-26T17:11:26.531Z,10.10
2018-04-26T17:13:55.673Z,10.10
2018-04-26T17:16:25.377Z,10.00
2018-04-26T17:18:53.883Z,10.00
2018-04-26T17:21:22.257Z,9.80
2018-04-26T17:23:50.678Z,9.80
2018-04-26T17:26:20.065Z,9.70
2018-04-26T17:28:48.692Z,9.70
2018-04-26T17:31:18.039Z,9.80
2018-04-26T17:33:46.709Z,9.70
2018-04-26T17:36:16.061Z,9.90
2018-04-26T17:38:44.938Z,9.90
2018-04-26T17:41:13.516Z,9.90
2018-04-26T17:43:41.919Z,9.90
2018-04-26T17:46:10.666Z,10.00
2018-04-26T17:48:39.851Z,10.00
2018-04-26T17:51:08.368Z,10.00
2018-04-26T17:53:36.843Z,10.00
2018-04-26T17:56:05.379Z,10.00
2018-04-26T17:58:34.325Z,10.10
2018-04-26T18:01:03.096Z,10.00
2018-04-26T18:03:31.586Z,10.00
2018-04-26T18:06:00.133Z,10.00
2018-04-26T18:08:29.815Z,10.00
2018-04-26T18:10:58.464Z,10.00
2018-04-26T18:13:27.069Z,10.00
2018-04-26T18:15:55.745Z,10.00
2018-04-26T18:18:24.533Z,10.00
2018-04-26T18:20:53.263Z,10.00
2018-04-26T18:23:22.603Z,10.00
2018-04-26T18:25:51.699Z,10.00
2018-04-26T18:28:20.078Z,10.10
2018-04-26T18:30:48.646Z,10.10
2018-04-26T18:33:18.181Z,10.10
2018-04-26T18:35:46.856Z,10.10
2018-04-26T18:38:15.763Z,10.10
2018-04-26T18:40:44.270Z,10.10
2018-04-26T18:43:12.835Z,10.10
2018-04-26T18:45:41.366Z,10.10
2018-04-26T18:48:09.920Z,10.10
2018-04-26T18:50:38.417Z,10.10
2018-04-26T18:53:07.858Z,10.10
2018-04-26T18:55:37.175Z,10.10
2018-04-26T18:58:05.856Z,10.10
2018-04-26T19:00:34.545Z,10.10
2018-04-26T19:03:03.070Z,10.10
2018-04-26T19:05:31.586Z,10.10
2018-04-26T19:08:00.216Z,10.10
2018-04-26T19:10:28.893Z,10.10
2018-04-26T19:12:58.213Z,10.00
2018-04-26T19:15:27.152Z,10.00
2018-04-26T19:17:55.751Z,9.90
2018-04-26T19:20:24.220Z,9.80
2018-04-26T19:22:52.807Z,9.70
2018-04-26T19:25:23.068Z,9.40
2018-04-26T19:27:52.149Z,9.40
2018-04-26T19:30:20.935Z,9.30
2018-04-26T19:32:49.537Z,9.20
2018-04-26T19:35:18.033Z,9.20
2018-04-26T19:37:46.679Z,9.10
2018-04-26T19:40:15.131Z,9.00
2018-04-26T19:42:43.777Z,8.90
2018-04-26T19:45:12.453Z,8.80
2018-04-26T19:47:41.114Z,8.90
2018-04-26T19:50:09.614Z,8.90
2018-04-26T19:52:38.397Z,9.00
2018-04-26T19:55:06.931Z,9.00
2018-04-26T19:57:35.534Z,9.00
2018-04-26T20:00:04.245Z,9.00
2018-04-26T20:02:32.780Z,9.00
2018-04-26T20:05:01.996Z,9.00
2018-04-26T20:07:31.453Z,8.90
2018-04-26T20:10:00.141Z,8.90
2018-04-26T20:12:28.625Z,8.90
2018-04-26T20:14:57.270Z,8.90
2018-04-26T20:17:25.845Z,8.90
2018-04-26T20:19:54.274Z,8.80
2018-04-26T20:22:22.970Z,8.80
2018-04-26T20:24:51.337Z,8.80
2018-04-26T20:27:19.844Z,8.70
2018-04-26T20:29:48.484Z,8.70
2018-04-26T20:32:16.776Z,8.70
2018-04-26T20:34:45.239Z,8.60
2018-04-26T20:37:13.863Z,8.60
2018-04-26T20:39:42.285Z,8.50
2018-04-26T20:42:10.966Z,8.50
2018-04-26T20:44:48.728Z,8.50
2018-04-26T20:47:17.461Z,8.40
2018-04-26T20:49:46.364Z,8.40
2018-04-26T20:52:14.897Z,8.40
2018-04-26T20:54:45.152Z,8.40
2018-04-26T20:57:14.569Z,8.40
2018-04-26T20:59:43.720Z,8.40
2018-04-26T21:02:12.195Z,8.40
2018-04-26T21:04:40.693Z,8.30
2018-04-26T21:07:09.156Z,8.40
2018-04-26T21:09:37.535Z,8.40
2018-04-26T21:12:05.415Z,8.40
2018-04-26T21:14:33.618Z,8.40
2018-04-26T21:17:01.873Z,8.30
2018-04-26T21:19:30.411Z,8.30
2018-04-26T21:21:58.836Z,8.20
2018-04-26T21:24:26.700Z,8.30
2018-04-26T21:26:54.543Z,8.30
2018-04-26T21:29:23.378Z,8.20
2018-04-26T21:31:51.064Z,8.20
2018-04-26T21:34:18.778Z,8.20
2018-04-26T21:36:46.805Z,8.20
2018-04-26T21:39:14.560Z,8.20
2018-04-26T21:41:42.251Z,8.20
2018-04-26T21:44:09.902Z,8.20
2018-04-26T21:46:37.589Z,8.20
2018-04-26T21:49:05.247Z,8.20
2018-04-26T21:51:38.513Z,8.20
2018-04-26T21:54:11.878Z,8.20
2018-04-26T21:56:45.155Z,8.20
2018-04-26T21:59:19.247Z,8.10
2018-04-26T22:01:52.705Z,8.10
2018-04-26T22:04:25.852Z,8.20
2018-04-26T22:06:53.613Z,8.20
2018-04-26T22:09:21.271Z,8.10
2018-04-26T22:11:48.955Z,8.20
2018-04-26T22:14:16.590Z,8.20
2018-04-26T22:16:44.232Z,8.10
2018-04-26T22:19:11.895Z,8.10
2018-04-26T22:21:39.543Z,8.20
2018-04-26T22:24:07.199Z,8.20
2018-04-26T22:26:35.444Z,8.10
2018-04-26T22:29:03.092Z,8.20
2018-04-26T22:31:30.750Z,8.20
2018-04-26T22:33:58.422Z,8.20
2018-04-26T22:36:26.097Z,8.10
2018-04-26T22:38:53.758Z,8.10
2018-04-26T22:41:21.600Z,8.10
2018-04-26T22:43:49.997Z,8.10
2018-04-26T22:46:17.631Z,8.10
2018-04-26T22:48:45.300Z,8.10
2018-04-26T22:51:13.731Z,8.10
2018-04-26T22:53:42.336Z,8.10
2018-04-26T22:56:10.003Z,8.00
2018-04-26T22:58:37.648Z,8.10
2018-04-26T23:01:05.297Z,8.00
2018-04-26T23:03:32.959Z,8.00
2018-04-26T23:06:00.620Z,8.10
2018-04-26T23:08:28.292Z,8.10
2018-04-26T23:10:55.966Z,8.00
2018-04-26T23:13:23.617Z,8.10
2018-04-26T23:15:51.294Z,8.10
2018-04-26T23:18:19.958Z,8.10
2018-04-26T23:20:47.588Z,8.10
2018-04-26T23:23:15.238Z,8.10
2018-04-26T23:25:42.899Z,8.10
2018-04-26T23:28:11.278Z,8.00
2018-04-26T23:30:38.936Z,8.00
2018-04-26T23:33:07.494Z,8.00
2018-04-26T23:35:35.788Z,8.00
2018-04-26T23:38:03.405Z,8.00
2018-04-26T23:40:31.066Z,8.00
2018-04-26T23:42:58.703Z,8.00
2018-04-26T23:45:26.378Z,8.00
2018-04-26T23:47:54.052Z,8.00
2018-04-26T23:50:21.694Z,8.00
2018-04-26T23:52:49.330Z,8.00
2018-04-26T23:55:17.748Z,8.00
2018-04-26T23:57:45.406Z,8.00
